createdAt,value
2022-12-26T00:01:27.340Z,10.20
2022-12-26T00:05:39.050Z,10.22
2022-12-26T00:09:50.832Z,10.14
2022-12-26T00:14:14.739Z,10.20
2022-12-26T00:18:26.411Z,10.25
2022-12-26T00:22:38.205Z,10.21
2022-12-26T00:26:50.616Z,10.19
2022-12-26T00:31:12.164Z,10.19
2022-12-26T00:35:23.893Z,10.23
2022-12-26T00:39:35.650Z,10.28
2022-12-26T00:43:48.081Z,10.26
2022-12-26T00:47:59.746Z,10.22
2022-12-26T00:52:11.379Z,10.28
2022-12-26T00:56:23.306Z,10.20
2022-12-26T01:00:36.250Z,10.31
2022-12-26T01:05:01.634Z,10.09
2022-12-26T01:09:15.150Z,10.28
2022-12-26T01:13:26.899Z,10.29
2022-12-26T01:17:38.407Z,10.31
2022-12-26T01:21:49.917Z,10.32
2022-12-26T01:26:17.324Z,10.24
2022-12-26T01:30:31.899Z,10.28
2022-12-26T01:34:43.461Z,10.30
2022-12-26T01:38:54.999Z,10.20
2022-12-26T01:43:12.096Z,10.26
2022-12-26T01:47:25.688Z,10.31
2022-12-26T01:51:41.427Z,10.24
2022-12-26T01:55:59.777Z,10.29
2022-12-26T02:00:12.733Z,10.23
2022-12-26T02:05:03.189Z,10.23
2022-12-26T02:09:14.743Z,10.20
2022-12-26T02:13:28.493Z,10.17
2022-12-26T02:17:42.463Z,10.20
2022-12-26T02:22:31.410Z,10.12
2022-12-26T02:27:06.321Z,10.19
2022-12-26T02:31:32.743Z,10.16
2022-12-26T02:36:17.369Z,10.20
2022-12-26T02:40:48.264Z,10.16
2022-12-26T02:45:52.696Z,10.18
2022-12-26T02:50:43.652Z,10.14
2022-12-26T02:55:25.973Z,10.15
2022-12-26T03:00:05.212Z,10.12
2022-12-26T03:04:37.884Z,10.03
2022-12-26T03:09:14.493Z,10.03
2022-12-26T03:13:36.821Z,10.06
2022-12-26T03:18:01.273Z,9.98
2022-12-26T03:22:30.572Z,9.91
2022-12-26T03:26:52.200Z,9.81
2022-12-26T03:31:15.421Z,9.75
2022-12-26T03:35:32.545Z,9.71
2022-12-26T03:40:26.055Z,9.74
2022-12-26T03:45:00.936Z,9.80
2022-12-26T03:49:43.632Z,9.78
2022-12-26T03:54:31.327Z,9.86
2022-12-26T03:59:20.134Z,9.90
2022-12-26T04:03:51.831Z,9.92
2022-12-26T04:08:31.696Z,9.90
2022-12-26T04:13:04.255Z,9.94
2022-12-26T04:18:08.514Z,9.93
2022-12-26T04:22:50.292Z,9.94
2022-12-26T04:27:23.330Z,9.92
2022-12-26T04:32:12.227Z,9.95
2022-12-26T04:37:12.606Z,9.98
2022-12-26T04:41:45.581Z,10.04
2022-12-26T04:45:57.673Z,10.00
2022-12-26T04:50:12.284Z,10.00
2022-12-26T04:54:23.969Z,9.89
2022-12-26T04:58:35.642Z,10.01
2022-12-26T05:03:05.842Z,9.90
2022-12-26T05:07:41.230Z,9.82
2022-12-26T05:11:52.928Z,9.77
2022-12-26T05:16:23.723Z,9.71
2022-12-26T05:20:47.441Z,9.58
2022-12-26T05:25:17.778Z,9.45
2022-12-26T05:29:29.473Z,9.40
2022-12-26T05:34:00.749Z,9.34
2022-12-26T05:38:12.413Z,9.30
2022-12-26T05:42:24.034Z,9.25
2022-12-26T05:46:36.970Z,9.19
2022-12-26T05:50:48.577Z,9.18
2022-12-26T05:55:00.322Z,9.10
2022-12-26T05:59:12.024Z,8.98
2022-12-26T06:03:23.633Z,9.08
2022-12-26T06:07:35.513Z,9.03
2022-12-26T06:11:49.239Z,8.88
2022-12-26T06:16:05.746Z,8.88
2022-12-26T06:20:17.456Z,8.87
2022-12-26T06:24:29.041Z,8.81
2022-12-26T06:28:42.222Z,8.88
2022-12-26T06:32:54.033Z,8.82
2022-12-26T06:37:05.765Z,8.79
2022-12-26T06:41:20.288Z,8.77
2022-12-26T06:45:32.030Z,8.82
2022-12-26T06:49:43.601Z,8.82
2022-12-26T06:53:55.604Z,8.81
2022-12-26T06:58:07.252Z,8.91
2022-12-26T07:02:19.048Z,9.07
2022-12-26T07:06:36.324Z,9.07
2022-12-26T07:10:48.014Z,8.95
2022-12-26T07:15:01.716Z,8.94
2022-12-26T07:19:15.279Z,8.92
2022-12-26T07:23:26.867Z,8.72
2022-12-26T07:27:38.606Z,8.83
2022-12-26T07:31:50.399Z,8.83
2022-12-26T07:36:06.754Z,8.85
2022-12-26T07:40:18.446Z,8.78
2022-12-26T07:44:32.216Z,8.78
2022-12-26T07:48:44.101Z,8.75
2022-12-26T07:52:55.777Z,8.71
2022-12-26T07:57:46.289Z,8.54
2022-12-26T08:01:41.625Z,8.65
2022-12-26T08:05:53.443Z,8.64
2022-12-26T08:10:05.513Z,8.68
2022-12-26T08:14:17.687Z,8.84
2022-12-26T08:18:29.377Z,8.88
2022-12-26T08:22:41.021Z,9.12
2022-12-26T08:26:52.727Z,9.33
2022-12-26T08:31:09.114Z,9.56
2022-12-26T08:35:20.770Z,9.62
2022-12-26T08:39:32.449Z,9.71
2022-12-26T08:44:25.323Z,9.73
2022-12-26T08:48:16.132Z,9.91
2022-12-26T08:52:27.811Z,9.99
2022-12-26T08:56:39.740Z,10.19
2022-12-26T09:00:55.247Z,10.45
2022-12-26T09:05:07.778Z,10.42
2022-12-26T09:09:19.432Z,10.43
2022-12-26T09:13:32.222Z,10.34
2022-12-26T09:17:43.909Z,10.34
2022-12-26T09:22:15.544Z,10.43
2022-12-26T09:26:29.490Z,10.42
2022-12-26T09:30:41.209Z,10.45
2022-12-26T09:34:52.871Z,10.45
2022-12-26T09:39:05.500Z,10.53
2022-12-26T09:43:26.201Z,10.53
2022-12-26T09:47:57.547Z,10.33
2022-12-26T09:52:14.913Z,10.34
2022-12-26T10:01:09.695Z,10.22
2022-12-26T10:05:25.199Z,10.17
2022-12-26T10:09:52.078Z,10.06
2022-12-26T10:14:23.939Z,9.98
2022-12-26T10:18:51.001Z,9.86
2022-12-26T10:23:34.415Z,9.90
2022-12-26T10:27:49.090Z,9.89
2022-12-26T10:32:05.770Z,9.88
2022-12-26T10:36:37.308Z,9.96
2022-12-26T10:40:53.345Z,9.91
2022-12-26T10:45:18.408Z,9.95
2022-12-26T10:49:29.957Z,9.87
2022-12-26T10:53:48.230Z,9.76
2022-12-26T10:58:05.546Z,9.63
2022-12-26T11:02:27.778Z,9.53
2022-12-26T11:06:43.717Z,9.32
2022-12-26T11:11:15.853Z,9.17
2022-12-26T11:15:46.710Z,9.18
2022-12-26T11:20:16.376Z,9.20
2022-12-26T11:24:27.939Z,9.18
2022-12-26T11:28:39.417Z,9.10
2022-12-26T11:33:11.719Z,9.11
2022-12-26T11:37:29.746Z,9.29
2022-12-26T11:41:43.992Z,9.01
2022-12-26T11:45:55.912Z,9.02
2022-12-26T11:50:12.146Z,8.93
2022-12-26T11:54:34.399Z,8.95
2022-12-26T11:58:45.970Z,8.78
2022-12-26T12:02:57.641Z,8.73
2022-12-26T12:07:51.900Z,8.90
2022-12-26T12:12:26.822Z,8.76
2022-12-26T12:16:51.994Z,8.84
2022-12-26T12:21:25.416Z,8.79
2022-12-26T12:26:10.547Z,8.74
2022-12-26T12:30:40.056Z,8.65
2022-12-26T12:35:00.919Z,8.63
2022-12-26T12:39:20.304Z,8.59
2022-12-26T12:44:01.015Z,8.43
2022-12-26T12:48:46.035Z,8.56
2022-12-26T12:54:11.644Z,8.57
2022-12-26T12:58:47.458Z,8.57
2022-12-26T13:02:58.929Z,8.59
2022-12-26T13:07:37.017Z,8.59
2022-12-26T13:12:06.561Z,8.40
2022-12-26T13:16:23.014Z,8.34
2022-12-26T13:20:42.308Z,8.25
2022-12-26T13:25:01.283Z,8.09
2022-12-26T13:29:28.036Z,8.12
2022-12-26T13:33:42.539Z,8.04
2022-12-26T13:37:57.728Z,7.79
2022-12-26T13:42:28.112Z,7.98
2022-12-26T13:46:44.400Z,7.93
2022-12-26T13:51:05.376Z,7.83
2022-12-26T13:55:16.885Z,7.85
2022-12-26T13:59:35.834Z,7.69
2022-12-26T14:04:32.069Z,7.74
2022-12-26T14:09:02.298Z,7.66
2022-12-26T14:13:35.441Z,7.57
2022-12-26T14:18:22.445Z,7.48
2022-12-26T14:22:33.983Z,7.40
2022-12-26T14:26:57.662Z,7.31
2022-12-26T14:31:43.474Z,7.23
2022-12-26T14:36:26.875Z,7.10
2022-12-26T14:41:03.872Z,7.03
2022-12-26T14:45:27.583Z,6.96
2022-12-26T14:49:41.351Z,6.83
2022-12-26T14:54:35.084Z,6.90
2022-12-26T14:58:53.978Z,6.85
2022-12-26T15:03:05.533Z,6.90
2022-12-26T15:07:35.946Z,6.80
2022-12-26T15:12:12.764Z,6.79
2022-12-26T15:16:37.327Z,6.61
2022-12-26T15:21:22.249Z,6.66
2022-12-26T15:25:42.903Z,6.68
2022-12-26T15:30:00.656Z,6.50
2022-12-26T15:34:27.807Z,6.37
2022-12-26T15:39:01.690Z,6.33
2022-12-26T15:43:29.215Z,6.22
2022-12-26T15:47:52.476Z,6.22
2022-12-26T15:52:25.550Z,6.00
2022-12-26T15:56:50.227Z,5.91
2022-12-26T16:01:02.179Z,5.89
2022-12-26T16:05:28.102Z,5.95
2022-12-26T16:09:47.875Z,5.74
2022-12-26T16:14:02.067Z,5.65
2022-12-26T16:18:15.922Z,5.59
2022-12-26T16:22:44.129Z,5.51
2022-12-26T16:27:01.597Z,5.50
2022-12-26T16:31:20.919Z,5.39
2022-12-26T16:35:36.377Z,5.31
2022-12-26T16:40:22.189Z,5.32
2022-12-26T16:44:41.158Z,5.06
2022-12-26T16:49:01.434Z,5.07
2022-12-26T16:53:18.936Z,4.87
2022-12-26T16:57:31.713Z,4.88
2022-12-26T17:01:56.092Z,4.73
2022-12-26T17:06:13.525Z,4.73
2022-12-26T17:10:29.721Z,4.74
2022-12-26T17:14:45.935Z,4.57
2022-12-26T17:19:11.326Z,4.70
2022-12-26T17:23:38.965Z,4.57
2022-12-26T17:28:09.158Z,4.59
2022-12-26T17:32:30.158Z,4.42
2022-12-26T17:41:16.524Z,4.33
2022-12-26T17:45:28.281Z,4.20
2022-12-26T17:49:40.026Z,4.05
2022-12-26T17:53:51.992Z,4.12
2022-12-26T17:58:03.739Z,4.07
2022-12-26T18:02:15.678Z,3.93
2022-12-26T18:06:27.748Z,3.75
2022-12-26T18:10:39.548Z,3.85
2022-12-26T18:14:53.542Z,3.79
2022-12-26T18:19:16.696Z,3.91
2022-12-26T18:23:28.424Z,3.78
2022-12-26T18:27:40.215Z,3.81
2022-12-26T18:31:51.996Z,3.75
2022-12-26T18:36:07.639Z,3.63
2022-12-26T18:40:38.079Z,3.71
2022-12-26T18:44:49.842Z,3.70
2022-12-26T18:49:01.603Z,3.81
2022-12-26T18:53:13.364Z,3.93
2022-12-26T18:57:25.091Z,4.15
2022-12-26T19:01:36.980Z,4.35
2022-12-26T19:05:48.782Z,4.37
2022-12-26T19:10:01.087Z,4.57
2022-12-26T19:14:21.201Z,4.65
2022-12-26T19:18:32.961Z,4.73
2022-12-26T19:22:45.146Z,4.66
2022-12-26T19:26:56.792Z,4.54
2022-12-26T19:31:10.724Z,4.31
2022-12-26T19:35:22.599Z,4.33
2022-12-26T19:39:34.702Z,4.39
2022-12-26T19:43:46.436Z,4.35
2022-12-26T19:47:58.539Z,4.43
2022-12-26T19:52:36.589Z,4.65
2022-12-26T19:56:48.311Z,4.61
2022-12-26T20:01:17.083Z,4.68
2022-12-26T20:05:29.123Z,4.67
2022-12-26T20:09:40.921Z,4.54
2022-12-26T20:13:52.726Z,4.50
2022-12-26T20:18:04.594Z,4.45
2022-12-26T20:22:16.327Z,4.39
2022-12-26T20:26:28.874Z,4.54
2022-12-26T20:30:40.802Z,4.60
2022-12-26T20:34:52.621Z,4.51
2022-12-26T20:39:07.730Z,4.44
2022-12-26T20:43:20.619Z,4.29
2022-12-26T20:47:32.303Z,4.24
2022-12-26T20:51:44.769Z,4.10
2022-12-26T20:55:59.315Z,4.06
2022-12-26T21:00:11.845Z,3.88
2022-12-26T21:04:23.559Z,3.68
2022-12-26T21:08:36.646Z,3.71
2022-12-26T21:12:48.368Z,3.78
2022-12-26T21:17:00.176Z,3.83
2022-12-26T21:21:18.235Z,3.68
2022-12-26T21:25:30.078Z,3.88
2022-12-26T21:29:42.425Z,3.90
2022-12-26T21:34:02.169Z,3.90
2022-12-26T21:38:13.961Z,3.94
2022-12-26T21:42:25.646Z,3.87
2022-12-26T21:46:37.329Z,3.79
2022-12-26T21:50:49.167Z,3.74
2022-12-26T21:55:19.366Z,3.65
2022-12-26T21:59:49.805Z,3.60
2022-12-26T22:04:19.639Z,3.56
2022-12-26T22:08:31.411Z,3.50
2022-12-26T22:12:58.147Z,3.59
2022-12-26T22:17:09.993Z,3.48
2022-12-26T22:21:23.494Z,3.46
2022-12-26T22:25:35.145Z,3.44
2022-12-26T22:29:46.811Z,3.33
2022-12-26T22:34:12.300Z,3.33
2022-12-26T22:38:24.030Z,3.28
2022-12-26T22:42:35.755Z,3.31
2022-12-26T22:46:47.405Z,3.10
2022-12-26T22:50:59.275Z,3.17
2022-12-26T22:55:12.438Z,3.14
2022-12-26T22:59:57.891Z,3.15
2022-12-26T23:03:55.878Z,3.12
2022-12-26T23:08:08.150Z,2.98
2022-12-26T23:12:38.804Z,3.06
2022-12-26T23:16:58.538Z,3.05
2022-12-26T23:21:39.007Z,3.09
2022-12-26T23:25:50.787Z,3.01
2022-12-26T23:30:20.556Z,3.03
2022-12-26T23:34:32.468Z,3.01
2022-12-26T23:38:44.181Z,3.02
2022-12-26T23:42:55.901Z,2.99
2022-12-26T23:47:08.657Z,3.00
2022-12-26T23:51:20.438Z,2.86
2022-12-26T23:55:32.312Z,3.01
2022-12-26T23:59:44.103Z,2.92
